Аэропорт: Запорожье. Запорожье

ICAO: UKDE

METAR:
2021-01-19 11:00:00
UKDE 191100Z 28003MPS 5000 FU SCT009 M12/M15 Q1018 R20/810570 NOSIG
METAR:
2021-01-19 10:43:00
TAF COR UKDE 191043Z 1910/1918 27003MPS 6000 BKN020 TEMPO 1910/1912 1400 SHSN BR BKN006 BKN015CB